sensor_id;sensor_type;location;lat;lon;timestamp;pressure;altitude;pressure_sealevel;temperature;humidity
28008;BME280;15333;50.010;20.020;2022-09-09T00:02:49;98396.66;;;16.79;100.00
28008;BME280;15333;50.010;20.020;2022-09-09T00:06:01;98399.72;;;16.76;100.00
28008;BME280;15333;50.010;20.020;2022-09-09T00:09:21;98399.03;;;16.74;100.00
28008;BME280;15333;50.010;20.020;2022-09-09T00:12:43;98391.94;;;16.73;100.00
28008;BME280;15333;50.010;20.020;2022-09-09T00:16:10;98397.34;;;16.73;100.00
28008;BME280;15333;50.010;20.020;2022-09-09T00:19:26;98391.94;;;16.73;100.00
28008;BME280;15333;50.010;20.020;2022-09-09T00:22:30;98390.22;;;16.72;100.00
28008;BME280;15333;50.010;20.020;2022-09-09T00:25:45;98396.47;;;16.73;100.00
28008;BME280;15333;50.010;20.020;2022-09-09T00:32:16;98393.94;;;16.71;100.00
28008;BME280;15333;50.010;20.020;2022-09-09T00:35:29;98397.66;;;16.70;100.00
28008;BME280;15333;50.010;20.020;2022-09-09T00:38:38;98391.94;;;16.73;100.00
28008;BME280;15333;50.010;20.020;2022-09-09T00:48:50;98409.81;;;16.66;100.00
28008;BME280;15333;50.010;20.020;2022-09-09T00:55:49;98414.53;;;16.64;100.00
28008;BME280;15333;50.010;20.020;2022-09-09T00:59:07;98420.28;;;16.61;100.00
28008;BME280;15333;50.010;20.020;2022-09-09T01:15:12;98427.97;;;16.56;100.00
28008;BME280;15333;50.010;20.020;2022-09-09T01:18:27;98433.38;;;16.56;100.00
28008;BME280;15333;50.010;20.020;2022-09-09T01:21:53;98435.75;;;16.59;100.00
28008;BME280;15333;50.010;20.020;2022-09-09T01:28:38;98434.56;;;16.54;100.00
28008;BME280;15333;50.010;20.020;2022-09-09T01:34:56;98453.63;;;16.52;100.00
28008;BME280;15333;50.010;20.020;2022-09-09T01:37:58;98459.34;;;16.49;100.00
28008;BME280;15333;50.010;20.020;2022-09-09T01:40:59;98459.34;;;16.49;100.00
28008;BME280;15333;50.010;20.020;2022-09-09T01:44:09;98468.63;;;16.47;100.00
28008;BME280;15333;50.010;20.020;2022-09-09T01:47:12;98471.13;;;16.40;100.00
28008;BME280;15333;50.010;20.020;2022-09-09T01:50:33;98468.03;;;16.35;100.00
28008;BME280;15333;50.010;20.020;2022-09-09T01:53:34;98470.06;;;16.33;100.00
28008;BME280;15333;50.010;20.020;2022-09-09T01:56:47;98475.28;;;16.26;100.00
28008;BME280;15333;50.010;20.020;2022-09-09T02:03:26;98467.25;;;16.17;100.00
28008;BME280;15333;50.010;20.020;2022-09-09T02:06:35;98472.31;;;16.12;100.00
28008;BME280;15333;50.010;20.020;2022-09-09T02:09:58;98470.91;;;16.08;100.00
28008;BME280;15333;50.010;20.020;2022-09-09T02:13:09;98480.34;;;16.03;100.00
28008;BME280;15333;50.010;20.020;2022-09-09T02:16:50;98484.34;;;15.99;100.00
28008;BME280;15333;50.010;20.020;2022-09-09T02:19:58;98488.69;;;15.92;100.00
28008;BME280;15333;50.010;20.020;2022-09-09T02:23:12;98486.94;;;15.83;100.00
28008;BME280;15333;50.010;20.020;2022-09-09T02:26:16;98495.03;;;15.83;100.00
28008;BME280;15333;50.010;20.020;2022-09-09T02:29:30;98501.56;;;15.81;100.00
28008;BME280;15333;50.010;20.020;2022-09-09T02:32:34;98504.44;;;15.79;100.00
28008;BME280;15333;50.010;20.020;2022-09-09T02:35:39;98501.66;;;15.71;100.00
28008;BME280;15333;50.010;20.020;2022-09-09T02:38:45;98514.47;;;15.69;100.00
28008;BME280;15333;50.010;20.020;2022-09-09T02:41:51;98504.97;;;15.65;100.00
28008;BME280;15333;50.010;20.020;2022-09-09T02:44:53;98517.38;;;15.58;100.00
28008;BME280;15333;50.010;20.020;2022-09-09T02:51:15;98513.69;;;15.59;100.00
28008;BME280;15333;50.010;20.020;2022-09-09T02:54:29;98516.38;;;15.59;100.00
28008;BME280;15333;50.010;20.020;2022-09-09T02:57:32;98521.41;;;15.54;100.00
28008;BME280;15333;50.010;20.020;2022-09-09T03:00:35;98531.88;;;15.57;100.00
28008;BME280;15333;50.010;20.020;2022-09-09T03:03:40;98533.31;;;15.51;100.00
28008;BME280;15333;50.010;20.020;2022-09-09T03:06:46;98536.16;;;15.50;100.00
28008;BME280;15333;50.010;20.020;2022-09-09T03:09:53;98532.78;;;15.48;100.00
28008;BME280;15333;50.010;20.020;2022-09-09T03:12:58;98527.69;;;15.45;100.00
28008;BME280;15333;50.010;20.020;2022-09-09T03:16:02;98527.69;;;15.45;100.00
28008;BME280;15333;50.010;20.020;2022-09-09T03:19:07;98533.91;;;15.45;100.00
28008;BME280;15333;50.010;20.020;2022-09-09T03:22:09;98535.38;;;15.40;100.00
28008;BME280;15333;50.010;20.020;2022-09-09T03:25:13;98522.91;;;15.39;100.00
28008;BME280;15333;50.010;20.020;2022-09-09T03:28:14;98525.88;;;15.36;100.00
28008;BME280;15333;50.010;20.020;2022-09-09T03:31:17;98532.44;;;15.33;100.00
28008;BME280;15333;50.010;20.020;2022-09-09T03:34:19;98530.59;;;15.34;100.00
28008;BME280;15333;50.010;20.020;2022-09-09T03:37:20;98527.22;;;15.32;100.00
28008;BME280;15333;50.010;20.020;2022-09-09T03:40:23;98534.59;;;15.29;100.00
28008;BME280;15333;50.010;20.020;2022-09-09T03:43:25;98531.59;;;15.33;100.00
28008;BME280;15333;50.010;20.020;2022-09-09T03:46:27;98529.19;;;15.29;100.00
28008;BME280;15333;50.010;20.020;2022-09-09T03:49:29;98536.59;;;15.27;100.00
28008;BME280;15333;50.010;20.020;2022-09-09T03:52:30;98540.59;;;15.23;100.00
28008;BME280;15333;50.010;20.020;2022-09-09T03:55:32;98543.75;;;15.19;100.00
28008;BME280;15333;50.010;20.020;2022-09-09T03:58:34;98541.50;;;15.14;100.00
28008;BME280;15333;50.010;20.020;2022-09-09T04:01:40;98546.22;;;15.12;100.00
28008;BME280;15333;50.010;20.020;2022-09-09T04:04:41;98544.09;;;15.06;100.00
28008;BME280;15333;50.010;20.020;2022-09-09T04:07:42;98553.47;;;15.02;100.00
28008;BME280;15333;50.010;20.020;2022-09-09T04:10:45;98558.16;;;15.00;100.00
28008;BME280;15333;50.010;20.020;2022-09-09T04:13:47;98554.09;;;14.96;100.00
28008;BME280;15333;50.010;20.020;2022-09-09T04:16:49;98556.91;;;14.95;100.00
28008;BME280;15333;50.010;20.020;2022-09-09T04:19:50;98556.38;;;14.91;100.00
28008;BME280;15333;50.010;20.020;2022-09-09T04:22:52;98547.03;;;14.85;100.00
28008;BME280;15333;50.010;20.020;2022-09-09T04:25:54;98553.28;;;14.86;100.00
28008;BME280;15333;50.010;20.020;2022-09-09T04:28:55;98550.56;;;14.86;100.00
28008;BME280;15333;50.010;20.020;2022-09-09T04:31:58;98545.88;;;14.88;100.00
28008;BME280;15333;50.010;20.020;2022-09-09T04:34:59;98548.97;;;14.93;100.00
28008;BME280;15333;50.010;20.020;2022-09-09T04:38:01;98548.38;;;14.99;100.00
28008;BME280;15333;50.010;20.020;2022-09-09T04:41:05;98553.06;;;15.24;100.00
28008;BME280;15333;50.010;20.020;2022-09-09T04:44:09;98550.78;;;15.29;100.00
28008;BME280;15333;50.010;20.020;2022-09-09T04:47:10;98553.69;;;15.18;100.00
28008;BME280;15333;50.010;20.020;2022-09-09T04:50:11;98553.97;;;15.15;100.00
28008;BME280;15333;50.010;20.020;2022-09-09T04:53:12;98557.72;;;15.32;100.00
28008;BME280;15333;50.010;20.020;2022-09-09T04:56:15;98558.31;;;15.89;100.00
28008;BME280;15333;50.010;20.020;2022-09-09T04:59:22;98561.84;;;16.68;100.00
28008;BME280;15333;50.010;20.020;2022-09-09T05:02:28;98567.25;;;17.02;100.00
28008;BME280;15333;50.010;20.020;2022-09-09T05:05:29;98572.78;;;16.23;100.00
28008;BME280;15333;50.010;20.020;2022-09-09T05:08:31;98572.56;;;15.99;100.00
28008;BME280;15333;50.010;20.020;2022-09-09T05:11:32;98574.28;;;15.82;100.00
28008;BME280;15333;50.010;20.020;2022-09-09T05:14:44;98571.25;;;15.85;100.00
28008;BME280;15333;50.010;20.020;2022-09-09T05:17:45;98571.97;;;15.87;100.00
28008;BME280;15333;50.010;20.020;2022-09-09T05:20:46;98575.66;;;15.86;100.00
28008;BME280;15333;50.010;20.020;2022-09-09T05:23:47;98576.06;;;15.74;100.00
28008;BME280;15333;50.010;20.020;2022-09-09T05:26:48;98580.38;;;15.66;100.00
28008;BME280;15333;50.010;20.020;2022-09-09T05:29:49;98570.19;;;15.60;100.00
28008;BME280;15333;50.010;20.020;2022-09-09T05:32:50;98577.38;;;15.70;100.00
28008;BME280;15333;50.010;20.020;2022-09-09T05:36:09;98586.00;;;15.73;100.00
28008;BME280;15333;50.010;20.020;2022-09-09T05:39:11;98582.78;;;15.70;100.00
28008;BME280;15333;50.010;20.020;2022-09-09T05:42:12;98579.66;;;15.64;100.00
28008;BME280;15333;50.010;20.020;2022-09-09T05:45:13;98589.22;;;15.59;100.00
28008;BME280;15333;50.010;20.020;2022-09-09T05:48:14;98576.19;;;15.54;100.00
28008;BME280;15333;50.010;20.020;2022-09-09T05:51:18;98586.63;;;15.67;100.00
28008;BME280;15333;50.010;20.020;2022-09-09T05:54:21;98584.75;;;15.85;100.00
28008;BME280;15333;50.010;20.020;2022-09-09T05:57:25;98588.31;;;16.03;100.00
28008;BME280;15333;50.010;20.020;2022-09-09T06:00:26;98593.25;;;16.26;100.00
28008;BME280;15333;50.010;20.020;2022-09-09T06:03:27;98601.84;;;16.47;100.00
28008;BME280;15333;50.010;20.020;2022-09-09T06:06:34;98605.72;;;16.62;100.00
28008;BME280;15333;50.010;20.020;2022-09-09T06:09:38;98603.78;;;16.80;100.00
28008;BME280;15333;50.010;20.020;2022-09-09T06:12:41;98606.25;;;17.00;100.00
28008;BME280;15333;50.010;20.020;2022-09-09T06:15:51;98605.25;;;17.01;100.00
28008;BME280;15333;50.010;20.020;2022-09-09T06:18:54;98610.81;;;16.99;100.00
28008;BME280;15333;50.010;20.020;2022-09-09T06:21:56;98609.69;;;17.10;100.00
28008;BME280;15333;50.010;20.020;2022-09-09T06:24:57;98612.44;;;17.18;100.00
28008;BME280;15333;50.010;20.020;2022-09-09T06:27:58;98620.50;;;17.10;100.00
28008;BME280;15333;50.010;20.020;2022-09-09T06:31:00;98605.69;;;17.22;99.91
28008;BME280;15333;50.010;20.020;2022-09-09T06:34:05;98602.31;;;17.28;99.94
28008;BME280;15333;50.010;20.020;2022-09-09T06:37:06;98606.03;;;17.27;98.94
28008;BME280;15333;50.010;20.020;2022-09-09T06:40:15;98599.97;;;17.25;97.96
28008;BME280;15333;50.010;20.020;2022-09-09T06:43:16;98612.84;;;17.31;98.42
28008;BME280;15333;50.010;20.020;2022-09-09T06:46:32;98596.13;;;17.44;97.85
28008;BME280;15333;50.010;20.020;2022-09-09T06:49:35;98603.06;;;17.38;97.20
28008;BME280;15333;50.010;20.020;2022-09-09T06:52:39;98605.41;;;17.41;98.18
28008;BME280;15333;50.010;20.020;2022-09-09T06:55:42;98610.56;;;17.52;97.46
28008;BME280;15333;50.010;20.020;2022-09-09T06:58:46;98607.50;;;17.47;96.44
28008;BME280;15333;50.010;20.020;2022-09-09T07:01:55;98600.69;;;17.43;95.29
28008;BME280;15333;50.010;20.020;2022-09-09T07:04:56;98605.59;;;17.40;95.43
28008;BME280;15333;50.010;20.020;2022-09-09T07:07:59;98600.88;;;17.50;95.60
28008;BME280;15333;50.010;20.020;2022-09-09T07:11:06;98604.72;;;17.73;96.71
28008;BME280;15333;50.010;20.020;2022-09-09T07:14:10;98599.84;;;17.93;93.42
28008;BME280;15333;50.010;20.020;2022-09-09T07:17:16;98606.25;;;17.76;92.92
28008;BME280;15333;50.010;20.020;2022-09-09T07:20:17;98606.44;;;17.82;91.92
28008;BME280;15333;50.010;20.020;2022-09-09T07:23:18;98605.78;;;17.88;91.72
28008;BME280;15333;50.010;20.020;2022-09-09T07:26:22;98599.88;;;18.01;91.95
28008;BME280;15333;50.010;20.020;2022-09-09T07:29:23;98605.31;;;18.17;90.00
28008;BME280;15333;50.010;20.020;2022-09-09T07:32:25;98601.91;;;18.23;89.58
28008;BME280;15333;50.010;20.020;2022-09-09T07:35:31;98608.19;;;18.32;87.49
28008;BME280;15333;50.010;20.020;2022-09-09T07:38:32;98602.09;;;18.38;87.37
28008;BME280;15333;50.010;20.020;2022-09-09T07:41:36;98605.66;;;18.38;86.36
28008;BME280;15333;50.010;20.020;2022-09-09T07:44:38;98598.88;;;18.18;87.14
28008;BME280;15333;50.010;20.020;2022-09-09T07:47:46;98605.97;;;18.27;87.92
28008;BME280;15333;50.010;20.020;2022-09-09T07:50:49;98610.69;;;18.33;86.37
28008;BME280;15333;50.010;20.020;2022-09-09T07:53:55;98616.31;;;18.40;86.74
28008;BME280;15333;50.010;20.020;2022-09-09T07:56:58;98613.41;;;18.33;87.30
28008;BME280;15333;50.010;20.020;2022-09-09T08:00:03;98612.25;;;18.52;86.47
28008;BME280;15333;50.010;20.020;2022-09-09T08:03:12;98600.91;;;18.65;84.62
28008;BME280;15333;50.010;20.020;2022-09-09T08:06:13;98614.78;;;18.78;83.94
28008;BME280;15333;50.010;20.020;2022-09-09T08:09:15;98611.38;;;18.76;83.94
28008;BME280;15333;50.010;20.020;2022-09-09T08:12:16;98623.75;;;18.87;83.84
28008;BME280;15333;50.010;20.020;2022-09-09T08:15:19;98619.34;;;18.86;83.19
28008;BME280;15333;50.010;20.020;2022-09-09T08:18:20;98622.50;;;19.05;81.29
28008;BME280;15333;50.010;20.020;2022-09-09T08:21:24;98621.81;;;19.11;77.48
28008;BME280;15333;50.010;20.020;2022-09-09T08:24:25;98623.03;;;19.09;78.11
28008;BME280;15333;50.010;20.020;2022-09-09T08:27:26;98623.78;;;19.26;78.53
28008;BME280;15333;50.010;20.020;2022-09-09T08:30:28;98633.25;;;19.46;77.80
28008;BME280;15333;50.010;20.020;2022-09-09T08:33:30;98629.50;;;19.47;76.96
28008;BME280;15333;50.010;20.020;2022-09-09T08:36:37;98636.63;;;19.40;76.18
28008;BME280;15333;50.010;20.020;2022-09-09T08:39:38;98636.31;;;19.51;75.53
28008;BME280;15333;50.010;20.020;2022-09-09T08:42:45;98636.31;;;19.43;76.79
28008;BME280;15333;50.010;20.020;2022-09-09T08:46:07;98633.59;;;19.51;77.00
28008;BME280;15333;50.010;20.020;2022-09-09T08:55:59;98632.66;;;20.51;72.72
28008;BME280;15333;50.010;20.020;2022-09-09T08:59:22;98636.69;;;20.93;70.75
28008;BME280;15333;50.010;20.020;2022-09-09T09:03:19;98633.53;;;21.33;68.21
28008;BME280;15333;50.010;20.020;2022-09-09T09:12:28;98638.81;;;21.20;63.81
28008;BME280;15333;50.010;20.020;2022-09-09T09:15:36;98651.28;;;21.59;64.34
28008;BME280;15333;50.010;20.020;2022-09-09T09:18:39;98641.84;;;21.91;62.87
28008;BME280;15333;50.010;20.020;2022-09-09T09:21:44;98640.63;;;22.29;61.76
28008;BME280;15333;50.010;20.020;2022-09-09T09:28:39;98640.34;;;22.45;60.14
28008;BME280;15333;50.010;20.020;2022-09-09T09:31:51;98649.19;;;21.61;63.36
28008;BME280;15333;50.010;20.020;2022-09-09T09:34:57;98653.22;;;21.06;65.98
28008;BME280;15333;50.010;20.020;2022-09-09T09:37:59;98648.22;;;20.57;66.02
28008;BME280;15333;50.010;20.020;2022-09-09T09:41:02;98641.59;;;20.37;64.07
28008;BME280;15333;50.010;20.020;2022-09-09T09:44:18;98637.84;;;20.38;64.53
28008;BME280;15333;50.010;20.020;2022-09-09T09:47:23;98636.81;;;20.77;62.04
28008;BME280;15333;50.010;20.020;2022-09-09T09:51:09;98640.13;;;21.24;60.69
28008;BME280;15333;50.010;20.020;2022-09-09T09:54:25;98639.16;;;21.61;59.39
28008;BME280;15333;50.010;20.020;2022-09-09T09:57:31;98637.50;;;21.16;61.04
28008;BME280;15333;50.010;20.020;2022-09-09T10:00:50;98640.63;;;21.05;62.53
28008;BME280;15333;50.010;20.020;2022-09-09T10:03:54;98641.75;;;20.96;62.73
28008;BME280;15333;50.010;20.020;2022-09-09T10:06:58;98631.56;;;21.27;62.25
28008;BME280;15333;50.010;20.020;2022-09-09T10:09:59;98635.16;;;21.28;59.83
28008;BME280;15333;50.010;20.020;2022-09-09T10:13:11;98623.03;;;21.60;60.26
28008;BME280;15333;50.010;20.020;2022-09-09T10:19:35;98620.50;;;21.94;59.59
28008;BME280;15333;50.010;20.020;2022-09-09T10:22:39;98616.03;;;22.44;58.63
28008;BME280;15333;50.010;20.020;2022-09-09T10:35:50;98636.63;;;21.16;59.91
28008;BME280;15333;50.010;20.020;2022-09-09T10:42:14;98635.91;;;21.22;60.64
28008;BME280;15333;50.010;20.020;2022-09-09T10:45:29;98637.81;;;21.13;59.96
28008;BME280;15333;50.010;20.020;2022-09-09T10:49:01;98639.13;;;20.88;60.33
28008;BME280;15333;50.010;20.020;2022-09-09T10:52:13;98636.25;;;21.33;59.32
28008;BME280;15333;50.010;20.020;2022-09-09T10:55:18;98628.28;;;21.46;57.52
28008;BME280;15333;50.010;20.020;2022-09-09T10:58:25;98629.41;;;21.67;57.07
28008;BME280;15333;50.010;20.020;2022-09-09T11:05:14;98622.31;;;22.23;56.21
28008;BME280;15333;50.010;20.020;2022-09-09T11:07:59;98629.78;;;22.36;55.58
28008;BME280;15333;50.010;20.020;2022-09-09T11:14:13;98628.84;;;22.71;55.71
28008;BME280;15333;50.010;20.020;2022-09-09T11:17:24;98617.00;;;22.57;55.80
28008;BME280;15333;50.010;20.020;2022-09-09T11:20:27;98625.66;;;22.89;53.61
28008;BME280;15333;50.010;20.020;2022-09-09T11:23:42;98619.94;;;23.12;53.33
28008;BME280;15333;50.010;20.020;2022-09-09T11:40:28;98620.91;;;23.32;48.93
28008;BME280;15333;50.010;20.020;2022-09-09T11:43:42;98614.56;;;23.25;49.39
28008;BME280;15333;50.010;20.020;2022-09-09T11:46:48;98620.09;;;23.38;49.41
28008;BME280;15333;50.010;20.020;2022-09-09T11:49:51;98620.47;;;23.56;49.30
28008;BME280;15333;50.010;20.020;2022-09-09T11:53:04;98613.66;;;23.87;47.64
28008;BME280;15333;50.010;20.020;2022-09-09T11:56:11;98622.31;;;23.49;46.84
28008;BME280;15333;50.010;20.020;2022-09-09T11:59:22;98623.47;;;23.40;46.22
28008;BME280;15333;50.010;20.020;2022-09-09T12:02:28;98622.75;;;23.59;46.26
28008;BME280;15333;50.010;20.020;2022-09-09T12:05:42;98629.91;;;23.60;47.32
28008;BME280;15333;50.010;20.020;2022-09-09T12:08:50;98617.03;;;23.95;47.50
28008;BME280;15333;50.010;20.020;2022-09-09T12:12:05;98618.31;;;23.93;45.63
28008;BME280;15333;50.010;20.020;2022-09-09T12:18:14;98618.88;;;24.42;46.93
28008;BME280;15333;50.010;20.020;2022-09-09T12:21:32;98620.50;;;24.30;45.79
28008;BME280;15333;50.010;20.020;2022-09-09T12:24:42;98612.09;;;24.25;44.14
28008;BME280;15333;50.010;20.020;2022-09-09T12:31:16;98616.34;;;24.34;43.52
28008;BME280;15333;50.010;20.020;2022-09-09T12:34:39;98611.19;;;24.05;43.29
28008;BME280;15333;50.010;20.020;2022-09-09T12:40:41;98618.44;;;24.58;41.67
28008;BME280;15333;50.010;20.020;2022-09-09T12:43:42;98613.84;;;24.72;43.54
28008;BME280;15333;50.010;20.020;2022-09-09T12:46:44;98619.34;;;24.92;45.69
28008;BME280;15333;50.010;20.020;2022-09-09T12:49:47;98618.25;;;24.53;47.04
28008;BME280;15333;50.010;20.020;2022-09-09T12:52:51;98615.50;;;24.40;47.51
28008;BME280;15333;50.010;20.020;2022-09-09T12:55:59;98622.22;;;24.38;47.29
28008;BME280;15333;50.010;20.020;2022-09-09T12:59:02;98626.81;;;24.31;46.64
28008;BME280;15333;50.010;20.020;2022-09-09T13:02:16;98622.47;;;23.89;48.82
28008;BME280;15333;50.010;20.020;2022-09-09T13:05:22;98620.72;;;24.22;46.62
28008;BME280;15333;50.010;20.020;2022-09-09T13:08:23;98617.88;;;24.02;48.01
28008;BME280;15333;50.010;20.020;2022-09-09T13:11:46;98610.44;;;24.37;46.67
28008;BME280;15333;50.010;20.020;2022-09-09T13:14:50;98599.09;;;24.73;45.52
28008;BME280;15333;50.010;20.020;2022-09-09T13:18:04;98596.56;;;24.85;45.48
28008;BME280;15333;50.010;20.020;2022-09-09T13:21:06;98607.53;;;24.85;46.01
28008;BME280;15333;50.010;20.020;2022-09-09T13:24:30;98598.44;;;24.38;45.47
28008;BME280;15333;50.010;20.020;2022-09-09T13:27:40;98601.63;;;24.68;45.06
28008;BME280;15333;50.010;20.020;2022-09-09T13:30:42;98601.19;;;24.45;46.47
28008;BME280;15333;50.010;20.020;2022-09-09T13:33:44;98596.75;;;24.37;45.77
28008;BME280;15333;50.010;20.020;2022-09-09T13:36:47;98598.47;;;24.71;45.12
28008;BME280;15333;50.010;20.020;2022-09-09T13:39:52;98594.00;;;25.16;44.08
28008;BME280;15333;50.010;20.020;2022-09-09T13:42:56;98588.56;;;25.03;43.42
28008;BME280;15333;50.010;20.020;2022-09-09T13:46:04;98583.50;;;25.07;44.64
28008;BME280;15333;50.010;20.020;2022-09-09T13:52:14;98584.34;;;25.20;45.17
28008;BME280;15333;50.010;20.020;2022-09-09T13:55:18;98575.91;;;25.02;44.77
28008;BME280;15333;50.010;20.020;2022-09-09T13:58:19;98577.81;;;24.82;46.28
28008;BME280;15333;50.010;20.020;2022-09-09T14:01:20;98582.66;;;24.80;46.66
28008;BME280;15333;50.010;20.020;2022-09-09T14:04:21;98575.72;;;24.71;46.11
28008;BME280;15333;50.010;20.020;2022-09-09T14:07:22;98576.34;;;24.59;45.74
28008;BME280;15333;50.010;20.020;2022-09-09T14:10:23;98574.06;;;24.56;44.94
28008;BME280;15333;50.010;20.020;2022-09-09T14:13:24;98580.56;;;24.36;46.31
28008;BME280;15333;50.010;20.020;2022-09-09T14:16:25;98570.38;;;24.10;46.92
28008;BME280;15333;50.010;20.020;2022-09-09T14:19:27;98573.72;;;23.92;45.60
28008;BME280;15333;50.010;20.020;2022-09-09T14:22:28;98570.81;;;24.07;45.08
28008;BME280;15333;50.010;20.020;2022-09-09T14:25:29;98580.44;;;23.90;47.44
28008;BME280;15333;50.010;20.020;2022-09-09T14:28:29;98563.84;;;23.98;46.30
28008;BME280;15333;50.010;20.020;2022-09-09T14:31:30;98571.31;;;24.43;43.99
28008;BME280;15333;50.010;20.020;2022-09-09T14:34:31;98568.97;;;24.53;44.06
28008;BME280;15333;50.010;20.020;2022-09-09T14:37:36;98562.66;;;24.59;43.14
28008;BME280;15333;50.010;20.020;2022-09-09T14:40:37;98554.03;;;24.63;41.94
28008;BME280;15333;50.010;20.020;2022-09-09T14:43:39;98557.41;;;24.32;43.23
28008;BME280;15333;50.010;20.020;2022-09-09T14:46:40;98542.47;;;24.21;43.67
28008;BME280;15333;50.010;20.020;2022-09-09T14:49:43;98551.91;;;24.25;45.11
28008;BME280;15333;50.010;20.020;2022-09-09T14:52:43;98554.63;;;24.18;44.08
28008;BME280;15333;50.010;20.020;2022-09-09T14:55:44;98544.28;;;24.01;44.03
28008;BME280;15333;50.010;20.020;2022-09-09T14:58:47;98541.28;;;23.83;44.00
28008;BME280;15333;50.010;20.020;2022-09-09T15:01:49;98538.41;;;24.10;43.89
28008;BME280;15333;50.010;20.020;2022-09-09T15:04:49;98536.91;;;23.95;44.96
28008;BME280;15333;50.010;20.020;2022-09-09T15:07:50;98551.00;;;23.92;45.30
28008;BME280;15333;50.010;20.020;2022-09-09T15:10:59;98541.13;;;23.43;45.56
28008;BME280;15333;50.010;20.020;2022-09-09T15:14:00;98547.56;;;23.63;45.39
28008;BME280;15333;50.010;20.020;2022-09-09T15:17:01;98545.00;;;23.55;46.11
28008;BME280;15333;50.010;20.020;2022-09-09T15:20:03;98542.16;;;23.90;47.24
28008;BME280;15333;50.010;20.020;2022-09-09T15:23:05;98542.94;;;22.88;50.63
28008;BME280;15333;50.010;20.020;2022-09-09T15:26:06;98538.91;;;23.19;50.22
28008;BME280;15333;50.010;20.020;2022-09-09T15:29:08;98540.13;;;23.10;50.67
28008;BME280;15333;50.010;20.020;2022-09-09T15:32:09;98539.25;;;23.02;50.44
28008;BME280;15333;50.010;20.020;2022-09-09T15:35:10;98533.75;;;22.96;50.81
28008;BME280;15333;50.010;20.020;2022-09-09T15:38:11;98543.13;;;22.80;51.44
28008;BME280;15333;50.010;20.020;2022-09-09T15:41:16;98548.16;;;22.83;51.59
28008;BME280;15333;50.010;20.020;2022-09-09T15:44:18;98556.16;;;22.14;54.00
28008;BME280;15333;50.010;20.020;2022-09-09T15:47:19;98551.09;;;22.11;54.67
28008;BME280;15333;50.010;20.020;2022-09-09T15:50:20;98545.72;;;22.18;54.49
28008;BME280;15333;50.010;20.020;2022-09-09T15:53:21;98554.72;;;21.97;54.93
28008;BME280;15333;50.010;20.020;2022-09-09T15:56:23;98555.63;;;22.04;55.43
28008;BME280;15333;50.010;20.020;2022-09-09T15:59:25;98560.94;;;21.91;56.64
28008;BME280;15333;50.010;20.020;2022-09-09T16:02:26;98555.00;;;22.02;56.09
28008;BME280;15333;50.010;20.020;2022-09-09T16:05:27;98563.19;;;22.02;56.33
28008;BME280;15333;50.010;20.020;2022-09-09T16:08:32;98560.25;;;21.68;57.66
28008;BME280;15333;50.010;20.020;2022-09-09T16:11:35;98563.19;;;21.66;57.99
28008;BME280;15333;50.010;20.020;2022-09-09T16:14:36;98564.25;;;21.51;58.27
28008;BME280;15333;50.010;20.020;2022-09-09T16:17:37;98554.13;;;21.44;58.42
28008;BME280;15333;50.010;20.020;2022-09-09T16:20:38;98560.78;;;21.42;58.22
28008;BME280;15333;50.010;20.020;2022-09-09T16:23:41;98561.34;;;21.37;58.45
28008;BME280;15333;50.010;20.020;2022-09-09T16:26:46;98565.09;;;21.36;58.40
28008;BME280;15333;50.010;20.020;2022-09-09T16:29:47;98566.91;;;21.29;59.24
28008;BME280;15333;50.010;20.020;2022-09-09T16:32:48;98567.72;;;21.15;59.49
28008;BME280;15333;50.010;20.020;2022-09-09T16:35:49;98565.66;;;21.02;60.71
28008;BME280;15333;50.010;20.020;2022-09-09T16:38:55;98564.63;;;20.89;60.85
28008;BME280;15333;50.010;20.020;2022-09-09T16:41:57;98565.75;;;20.80;60.89
28008;BME280;15333;50.010;20.020;2022-09-09T16:44:58;98567.34;;;20.74;61.09
28008;BME280;15333;50.010;20.020;2022-09-09T16:47:59;98567.22;;;20.67;61.04
28008;BME280;15333;50.010;20.020;2022-09-09T16:51:06;98560.47;;;20.63;61.03
28008;BME280;15333;50.010;20.020;2022-09-09T16:54:08;98564.38;;;20.61;61.39
28008;BME280;15333;50.010;20.020;2022-09-09T16:57:09;98560.72;;;20.54;61.86
28008;BME280;15333;50.010;20.020;2022-09-09T17:00:10;98556.19;;;20.46;62.30
28008;BME280;15333;50.010;20.020;2022-09-09T17:03:14;98561.59;;;20.31;62.75
28008;BME280;15333;50.010;20.020;2022-09-09T17:06:16;98563.88;;;20.20;63.69
28008;BME280;15333;50.010;20.020;2022-09-09T17:09:17;98560.50;;;20.18;63.61
28008;BME280;15333;50.010;20.020;2022-09-09T17:12:19;98560.88;;;20.15;63.91
28008;BME280;15333;50.010;20.020;2022-09-09T17:15:21;98549.03;;;20.08;64.27
28008;BME280;15333;50.010;20.020;2022-09-09T17:18:21;98555.16;;;20.10;64.48
28008;BME280;15333;50.010;20.020;2022-09-09T17:21:24;98554.81;;;20.05;64.99
28008;BME280;15333;50.010;20.020;2022-09-09T17:24:28;98558.94;;;20.01;65.55
28008;BME280;15333;50.010;20.020;2022-09-09T17:27:29;98564.13;;;19.87;66.48
28008;BME280;15333;50.010;20.020;2022-09-09T17:30:34;98567.00;;;19.63;68.00
28008;BME280;15333;50.010;20.020;2022-09-09T17:33:39;98571.16;;;19.43;69.05
28008;BME280;15333;50.010;20.020;2022-09-09T17:36:40;98574.81;;;19.19;71.34
28008;BME280;15333;50.010;20.020;2022-09-09T17:39:41;98579.13;;;18.97;73.62
28008;BME280;15333;50.010;20.020;2022-09-09T17:42:42;98580.53;;;18.77;75.64
28008;BME280;15333;50.010;20.020;2022-09-09T17:45:43;98589.38;;;18.63;76.22
28008;BME280;15333;50.010;20.020;2022-09-09T17:48:48;98590.03;;;18.49;75.59
28008;BME280;15333;50.010;20.020;2022-09-09T17:51:49;98599.88;;;18.42;75.83